Station: Holsworthy (Defence)  

  Atmospheric Gas Attenuation - ITU Rec 676-11   ----------------- dB/100km -----------------
Date Time Temp RH % AH g/m3 Dew Point Wind Direction Speed kph Gust kph Barometer mB Rainfall Since 9am 24GHz 47GHz 76GHz 122GHz 134GHz 241GHz
08/05 12:30 18.1 40 6.18 4.3 22 37 1013.1 0 14.3 21.1 29.0 75.6 64.3 219.5
08/05 12:20 17.9 41 6.26 4.4 19 32 1013.1 0 14.5 21.3 29.3 76.5 65.4 223.2
08/05 12:10 18 42 6.45 4.9 11 19 1013.1 0 14.9 21.5 29.9 78.2 67.5 230.6
08/05 12:00 17.6 41 6.15 4.2 22 37 1013.1 0 14.2 21.2 29.0 75.7 64.4 219.6
08/05 11:50 17.7 42 6.34 4.9 19 28 1013.1 0 14.6 21.5 29.7 77.4 66.5 227.0
08/05 11:40 17.5 43 6.41 4.8 17 24 1013.1 0 14.8 21.6 30.0 78.3 67.4 230.4
08/05 11:30 17.4 43 6.37 4.7 20 35 1013.1 0 14.7 21.6 29.9 78.0 67.0 229.0
08/05 11:20 17.3 45 6.63 5.2 20 24 1013.1 0 15.3 22.0 30.8 80.5 70.2 239.9
08/05 11:10 17.3 44 6.48 4.9 17 26 1013.1 0 14.9 21.7 30.3 79.1 68.4 233.8
08/05 11:00 16.9 44 6.33 4.6 19 32 1013.1 0 14.6 21.6 29.9 78.1 67.0 228.8
08/05 10:50 17 45 6.51 5 17 24 1013.1 0 15.0 21.9 30.5 79.7 69.0 235.9
08/05 10:40 16.6 46 6.5 4.9 13 17 1013.1 0 15.0 21.9 30.6 80.0 69.2 236.6
08/05 10:30 16 47 6.4 4.7 22 43 1013.1 0 14.8 21.9 30.5 79.6 68.6 234.3
08/05 10:20 15.9 48 6.5 4.9 19 26 1013.1 0 15.0 22.1 30.9 80.7 69.9 238.7
08/05 10:10 15.8 48 6.46 4.8 17 22 1013.1 0 15.0 22.1 30.8 80.4 69.5 237.3
08/05 10:00 15.4 48 6.31 4.5 17 32 1013.1 0 14.7 22.0 30.4 79.4 68.0 232.3
08/05 09:50 15.4 50 6.57 5 11 15 1013.1 0 15.2 22.3 31.3 81.9 71.1 243.1
08/05 09:40 15 51 6.54 4.9 11 17 1013.1 0 15.2 22.4 31.4 82.0 71.1 243.1
08/05 09:30 14.7 53 6.67 5.2 15 32 1013.1 0 15.4 22.7 32.0 83.6 73.0 249.5
08/05 09:20 14.3 54 6.63 5.1 9 15 1013.1 0 15.4 22.7 32.0 83.6 72.8 249.0
08/05 09:10 13.7 54 6.39 4.5 9 13 1013.1 0 14.9 22.5 31.3 81.8 70.5 240.6
08/05 09:00 13.4 55 6.39 4.6 13 32 1013.1 0 14.9 22.6 31.4 82.1 70.7 241.5
08/05 08:50 13 57 6.46 4.7 9 13 1013.1 0 15.1 22.8 31.9 83.2 72.0 245.7
08/05 08:40 12.5 57 6.27 4.4 13 17 1013.1 0 14.7 22.6 31.3 81.9 70.1 239.0
08/05 08:30 12.2 59 6.37 4.4 13 24 1013.1 0 14.9 22.8 31.8 83.2 71.6 244.3
08/05 08:20 11.7 60 6.28 4.2 13 19 1013.1 0 14.7 22.8 31.7 82.8 70.9 241.9
08/05 08:10 11.2 62 6.29 4.2 6 9 1013.1 0 14.8 23.0 31.9 83.4 71.5 243.8
08/05 08:00 10.7 63 6.19 4 7 15 1013.1 0 14.6 22.9 31.8 82.9 70.7 241.0
08/05 07:50 10.2 64 6.09 3.7 4 6 1013.1 0 14.4 22.9 31.6 82.4 69.9 238.0
08/05 07:40 9.8 65 6.03 3.5 9 13 1013.1 0 14.3 22.9 31.5 82.2 69.5 236.6
08/05 07:30 9.2 67 5.98 3.4 9 19 1013.1 0 14.2 23.0 31.5 82.3 69.4 236.1
08/05 07:20 8.5 68 5.81 2.9 11 15 1013.1 0 13.8 22.9 31.2 81.3 67.8 230.6
08/05 07:10 8.1 69 5.74 2.7 6 7 1013.1 0 13.7 22.9 31.0 81.0 67.3 228.6
08/05 07:00 8.1 69 5.74 2.8 11 20 1013.1 0 13.7 22.9 31.0 81.0 67.3 228.6
08/05 06:50 7.8 69 5.63 2.6 15 19 1013.1 0 13.5 22.8 30.7 80.2 66.1 224.6
08/05 06:40 7.5 71 5.69 2.6 9 11 1013.1 0 13.6 23.0 31.1 81.1 67.1 228.1
08/05 06:30 6.9 72 5.55 2.2 9 15 1013.1 0 13.3 22.9 30.8 80.2 65.9 223.5
08/05 06:20 6.4 73 5.44 1.9 7 9 1013.1 0 13.1 22.8 30.5 79.6 64.9 219.9
08/05 06:10 6.7 72 5.47 2 6 7 1013.1 0 13.2 22.8 30.5 79.6 65.0 220.5
08/05 06:00 6.5 72 5.4 1.8 6 7 1013.1 0 13.0 22.8 30.3 79.1 64.3 217.9
08/05 05:50 6.8 71 5.43 1.9 4 6 1013.1 0 13.1 22.7 30.3 79.1 64.4 218.4
08/05 05:40 6.9 71 5.47 2 6 6 1013.1 0 13.2 22.8 30.5 79.4 64.8 219.9
08/05 05:30 7 70 5.43 1.9 6 11 1013.1 0 13.1 22.7 30.3 78.9 64.2 217.8
08/05 05:20 6.5 72 5.4 1.8 7 7 1013.1 0 13.0 22.8 30.3 79.1 64.3 217.9
08/05 05:10 6.7 71 5.4 1.8 7 9 1013.1 0 13.0 22.7 30.3 78.9 64.1 217.3
08/05 05:00 6.6 71 5.36 1.7 9 13 1013.1 0 12.9 22.7 30.1 78.6 63.7 215.8
08/05 04:50 6.7 70 5.32 1.6 9 9 1013.1 0 12.9 22.6 29.9 78.1 63.1 213.7
08/05 04:40 6.7 69 5.25 1.4 7 9 1013.1 0 12.7 22.5 29.7 77.3 62.2 210.6
08/05 04:30 6.8 69 5.28 1.5 9 17 1013.1 0 12.8 22.5 29.8 77.6 62.5 211.7
08/05 04:20 6.9 70 5.39 1.8 11 13 1013.1 0 13.0 22.6 30.1 78.6 63.8 216.3
08/05 04:10 6.5 70 5.25 1.4 9 11 1013.1 0 12.7 22.5 29.8 77.5 62.3 211.1
08/05 04:00 6.6 69 5.21 1.3 7 11 1013.1 0 12.6 22.4 29.6 77.0 61.8 209.1
08/05 03:50 6.7 69 5.25 1.4 7 9 1013.1 0 12.7 22.5 29.7 77.3 62.2 210.6
08/05 03:40 6.9 68 5.24 1.4 7 11 1013.1 0 12.7 22.4 29.6 77.0 61.9 209.6
08/05 03:30 6.7 68 5.17 1.2 7 13 1013.1 0 12.5 22.4 29.4 76.5 61.2 207.0
08/05 03:20 6.9 67 5.16 1.2 7 9 1013.1 0 12.5 22.3 29.3 76.2 60.9 206.1
08/05 03:10 6.7 68 5.17 1.2 7 11 1013.1 0 12.5 22.4 29.4 76.5 61.2 207.0
08/05 03:00 6.7 68 5.17 1.2 9 15 1013.1 0 12.5 22.4 29.4 76.5 61.2 207.0
08/05 02:50 6.6 67 5.06 0.9 9 9 1013.1 0 12.3 22.2 29.0 75.5 59.9 202.4
08/05 02:40 6.6 67 5.06 0.9 9 13 1013.1 0 12.3 22.2 29.0 75.5 59.9 202.4
08/05 02:30 6.9 65 5.01 0.8 9 13 1013.1 0 12.2 22.1 28.7 74.7 59.0 199.4
08/05 02:20 7.1 64 4.99 0.7 9 13 1013.1 0 12.1 22.0 28.5 74.3 58.6 198.0
08/05 02:10 7.1 64 4.99 0.7 11 15 1013.1 0 12.1 22.0 28.5 74.3 58.6 198.0
08/05 02:00 7.5 62 4.96 0.7 11 17 1013.1 0 12.1 21.8 28.3 73.6 57.9 195.7
08/05 01:50 7.8 61 4.98 0.7 11 15 1013.1 0 12.1 21.8 28.3 73.6 58.0 195.9
08/05 01:40 7.9 61 5.01 0.8 13 17 1013.1 0 12.2 21.8 28.3 73.8 58.3 196.9
08/05 01:30 7.6 61 4.92 0.6 13 20 1013.1 0 12.0 21.8 28.1 73.1 57.4 193.8
08/05 01:20 7.7 60 4.87 0.4 9 15 1013.1 0 11.9 21.7 27.9 72.5 56.7 191.3
08/05 01:10 7.6 60 4.84 0.3 9 11 1013.1 0 11.8 21.6 27.8 72.3 56.4 190.3
08/05 01:00 7.9 58 4.77 0.2 13 19 1013.1 0 11.6 21.5 27.4 71.4 55.3 186.5
08/05 00:50 8 58 4.8 0.2 17 24 1013.1 0 11.7 21.5 27.5 71.6 55.6 187.6
08/05 00:40 8 57 4.71 0 15 19 1013.1 0 11.5 21.3 27.2 70.7 54.5 183.7
08/05 00:20 7.8 55 4.49 -0.5 13 15 1013.1 0 11.0 21.1 26.4 68.7 51.9 174.8
08/05 00:10 7.8 57 4.65 -0.2 13 19 1013.1 0 11.4 21.3 27.0 70.3 53.9 181.6
08/05 00:00 7.9 56 4.6 -0.3 13 22 1013.1 0 11.3 21.2 26.8 69.7 53.2 179.2
07/05 23:50 7.8 57 4.65 -0.2 11 15 1013.1 0 11.4 21.3 27.0 70.3 53.9 181.6
07/05 23:40 7.8 57 4.65 -0.2 9 11 1013.1 0 11.4 21.3 27.0 70.3 53.9 181.6
07/05 23:30 7.8 57 4.65 -0.2 11 19 1013.1 0 11.4 21.3 27.0 70.3 53.9 181.6
07/05 23:20 7.8 57 4.65 -0.2 9 13 1013.1 0 11.4 21.3 27.0 70.3 53.9 181.6
07/05 23:10 8 56 4.63 -0.3 11 13 1013.1 0 11.3 21.2 26.9 69.9 53.5 180.3
07/05 23:00 8.1 55 4.58 -0.4 11 17 1013.1 0 11.2 21.1 26.7 69.3 52.8 177.9
07/05 22:50 8.3 54 4.55 -0.5 9 13 1013.1 0 11.2 21.0 26.5 68.9 52.3 176.2
07/05 22:40 8.5 54 4.61 -0.3 13 17 1013.1 0 11.3 21.1 26.7 69.3 52.9 178.3
07/05 22:30 8.6 53 4.56 -0.4 13 20 1013.1 0 11.2 21.0 26.4 68.7 52.3 176.0
07/05 22:20 8.7 53 4.59 -0.4 13 17 1013.1 0 11.2 21.0 26.5 68.9 52.6 177.1
07/05 22:10 8.7 53 4.59 -0.4 11 19 1013.1 0 11.2 21.0 26.5 68.9 52.6 177.1
07/05 22:00 8.8 52 4.53 -0.5 11 19 1013.1 0 11.1 20.9 26.3 68.2 51.8 174.3
07/05 21:50 9 51 4.5 -0.6 11 13 1013.1 0 11.0 20.8 26.1 67.8 51.3 172.6
07/05 21:40 9.1 51 4.53 -0.5 15 19 1013.1 0 11.1 20.8 26.2 68.0 51.6 173.7
07/05 21:30 9.4 50 4.52 -0.5 15 32 1013.1 0 11.1 20.7 26.0 67.6 51.3 172.6
07/05 21:20 9.4 49 4.43 -0.8 20 30 1013.1 0 10.9 20.6 25.7 66.8 50.2 168.8
07/05 21:10 9.3 49 4.4 -0.9 19 24 1013.1 0 10.8 20.6 25.6 66.6 49.9 167.8
07/05 21:00 9.6 49 4.49 -0.6 19 37 1013.1 0 11.0 20.7 25.9 67.2 50.8 170.9
07/05 20:50 9.3 49 4.4 -0.9 15 19 1013.1 0 10.8 20.6 25.6 66.6 49.9 167.8
07/05 20:40 9.4 49 4.43 -0.8 19 26 1013.1 0 10.9 20.6 25.7 66.8 50.2 168.8
07/05 20:30 9.2 49 4.38 -0.9 15 28 1013.1 0 10.8 20.6 25.6 66.4 49.7 167.2
07/05 20:20 9.3 48 4.32 -1.2 11 15 1013.1 0 10.6 20.5 25.4 65.8 49.0 164.5
07/05 20:10 9.4 48 4.34 -1.1 13 15 1013.1 0 10.7 20.5 25.4 65.9 49.1 165.1
07/05 20:00 8.9 49 4.29 -1.2 7 15 1013.1 0 10.6 20.5 25.4 65.8 48.9 164.0
07/05 19:50 9.1 48 4.26 -1.4 6 7 1013.1 0 10.5 20.4 25.2 65.4 48.4 162.4

Last Refresh: 08-May-2026 12:10:18

Bureau of Meteorology